createdAt,value
2023-05-25T00:00:07.041Z,95584
2023-05-25T00:03:32.921Z,95583
2023-05-25T00:06:57.581Z,95586
2023-05-25T00:10:24.018Z,95586
2023-05-25T00:13:48.035Z,95588
2023-05-25T00:17:13.289Z,95583
2023-05-25T00:20:38.613Z,95584
2023-05-25T00:24:03.756Z,95575
2023-05-25T00:27:29.170Z,95580
2023-05-25T00:30:54.488Z,95578
2023-05-25T00:34:19.704Z,95583
2023-05-25T00:37:45.021Z,95584
2023-05-25T00:41:10.219Z,95586
2023-05-25T00:44:35.522Z,95587
2023-05-25T00:48:00.800Z,95586
2023-05-25T00:51:26.071Z,95577
2023-05-25T00:54:51.403Z,95577
2023-05-25T00:58:16.638Z,95575
2023-05-25T01:01:41.885Z,95572
2023-05-25T01:05:07.098Z,95577
2023-05-25T01:08:32.393Z,95574
2023-05-25T01:11:57.677Z,95571
2023-05-25T01:15:22.878Z,95565
2023-05-25T01:18:48.120Z,95564
2023-05-25T01:22:13.400Z,95562
2023-05-25T01:25:38.621Z,95568
2023-05-25T01:29:03.876Z,95563
2023-05-25T01:32:29.310Z,95572
2023-05-25T01:35:54.520Z,95572
2023-05-25T01:39:19.738Z,95568
2023-05-25T01:42:44.988Z,95569
2023-05-25T01:46:10.347Z,95569
2023-05-25T01:49:35.563Z,95573
2023-05-25T01:53:00.789Z,95568
2023-05-25T01:56:26.057Z,95574
2023-05-25T01:59:51.350Z,95572
2023-05-25T02:03:16.649Z,95568
2023-05-25T02:06:41.833Z,95567
2023-05-25T02:10:07.111Z,95567
2023-05-25T02:13:32.348Z,95569
2023-05-25T02:16:57.604Z,95573
2023-05-25T02:20:22.966Z,95568
2023-05-25T02:23:48.136Z,95567
2023-05-25T02:27:13.411Z,95565
2023-05-25T02:30:38.685Z,95564
2023-05-25T02:34:03.932Z,95571
2023-05-25T02:37:29.953Z,95571
2023-05-25T02:40:55.249Z,95566
2023-05-25T02:44:20.501Z,95568
2023-05-25T02:47:45.816Z,95577
2023-05-25T02:51:11.016Z,95577
2023-05-25T02:54:36.290Z,95578
2023-05-25T02:58:01.541Z,95578
2023-05-25T03:01:26.837Z,95580
2023-05-25T03:04:52.059Z,95588
2023-05-25T03:08:17.303Z,95590
2023-05-25T03:11:42.588Z,95593
2023-05-25T03:15:07.852Z,95597
2023-05-25T03:18:33.194Z,95598
2023-05-25T03:21:58.434Z,95598
2023-05-25T03:25:23.684Z,95598
2023-05-25T03:28:48.974Z,95601
2023-05-25T03:32:14.233Z,95598
2023-05-25T03:35:39.491Z,95600
2023-05-25T03:39:04.804Z,95604
2023-05-25T03:42:30.022Z,95608
2023-05-25T03:45:55.339Z,95615
2023-05-25T03:49:20.551Z,95616
2023-05-25T03:52:45.837Z,95615
2023-05-25T03:56:11.152Z,95625
2023-05-25T03:59:36.380Z,95629
2023-05-25T04:03:01.782Z,95631
2023-05-25T04:06:26.943Z,95636
2023-05-25T04:09:52.184Z,95638
2023-05-25T04:13:17.439Z,95636
2023-05-25T04:16:42.821Z,95638
2023-05-25T04:20:08.027Z,95642
2023-05-25T04:23:33.274Z,95642
2023-05-25T04:26:58.531Z,95642
2023-05-25T04:30:23.806Z,95638
2023-05-25T04:33:49.058Z,95643
2023-05-25T04:37:14.301Z,95645
2023-05-25T04:40:39.584Z,95649
2023-05-25T04:44:09.469Z,95654
2023-05-25T04:47:30.123Z,95655
2023-05-25T04:50:55.356Z,95659
2023-05-25T04:54:20.622Z,95663
2023-05-25T04:57:46.395Z,95661
2023-05-25T05:01:11.715Z,95662
2023-05-25T05:04:36.870Z,95658
2023-05-25T05:08:02.129Z,95653
2023-05-25T05:11:27.410Z,95648
2023-05-25T05:14:52.630Z,95649
2023-05-25T05:18:17.890Z,95656
2023-05-25T05:21:43.108Z,95655
2023-05-25T05:25:08.375Z,95655
2023-05-25T05:28:34.268Z,95656
2023-05-25T05:31:59.525Z,95661
2023-05-25T05:35:25.543Z,95667
2023-05-25T05:38:50.830Z,95669
2023-05-25T05:42:16.092Z,95667
2023-05-25T05:45:41.421Z,95670
2023-05-25T05:49:06.552Z,95671
2023-05-25T05:52:31.835Z,95677
2023-05-25T05:55:57.107Z,95680
2023-05-25T05:59:22.422Z,95677
2023-05-25T06:02:49.482Z,95680
2023-05-25T06:06:14.510Z,95679
2023-05-25T06:09:39.749Z,95681
2023-05-25T06:13:05.012Z,95682
2023-05-25T06:16:30.315Z,95683
2023-05-25T06:19:55.581Z,95682
2023-05-25T06:23:20.811Z,95674
2023-05-25T06:26:46.142Z,95677
2023-05-25T06:30:11.426Z,95681
2023-05-25T06:33:36.665Z,95681
2023-05-25T06:37:01.898Z,95687
2023-05-25T06:40:27.111Z,95690
2023-05-25T06:43:52.289Z,95697
2023-05-25T06:47:17.527Z,95697
2023-05-25T06:50:42.739Z,95691
2023-05-25T06:54:07.966Z,95688
2023-05-25T06:57:33.151Z,95691
2023-05-25T07:00:58.369Z,95699
2023-05-25T07:04:23.585Z,95696
2023-05-25T07:07:48.802Z,95690
2023-05-25T07:11:14.052Z,95690
2023-05-25T07:14:39.268Z,95693
2023-05-25T07:18:04.501Z,95693
2023-05-25T07:21:29.736Z,95690
2023-05-25T07:24:54.952Z,95690
2023-05-25T07:28:20.204Z,95691
2023-05-25T07:31:45.426Z,95694
2023-05-25T07:35:10.595Z,95699
2023-05-25T07:38:36.397Z,95700
2023-05-25T07:42:01.636Z,95703
2023-05-25T07:45:26.846Z,95707
2023-05-25T07:48:52.059Z,95705
2023-05-25T07:52:17.290Z,95700
2023-05-25T07:55:42.549Z,95706
2023-05-25T07:59:07.740Z,95710
2023-05-25T08:02:33.042Z,95711
2023-05-25T08:05:58.156Z,95707
2023-05-25T08:09:23.374Z,95711
2023-05-25T08:12:50.317Z,95707
2023-05-25T08:16:13.836Z,95701
2023-05-25T08:19:39.120Z,95702
2023-05-25T08:23:04.341Z,95705
2023-05-25T08:26:41.605Z,95707
2023-05-25T08:29:55.025Z,95722
2023-05-25T08:33:20.249Z,95716
2023-05-25T08:36:45.530Z,95714
2023-05-25T08:40:10.766Z,95719
2023-05-25T08:43:36.086Z,95720
2023-05-25T08:47:01.350Z,95720
2023-05-25T08:50:26.643Z,95720
2023-05-25T08:53:51.995Z,95725
2023-05-25T08:57:17.259Z,95727
2023-05-25T09:00:42.776Z,95731
2023-05-25T09:04:07.857Z,95728
2023-05-25T09:07:33.131Z,95730
2023-05-25T09:10:58.455Z,95732
2023-05-25T09:14:23.702Z,95730
2023-05-25T09:17:49.095Z,95733
2023-05-25T09:21:14.388Z,95732
2023-05-25T09:24:39.702Z,95738
2023-05-25T09:28:24.583Z,95731
2023-05-25T09:31:30.440Z,95732
2023-05-25T09:34:55.712Z,95738
2023-05-25T09:38:21.546Z,95728
2023-05-25T09:41:46.595Z,95738
2023-05-25T09:45:12.275Z,95735
2023-05-25T09:48:37.876Z,95737
2023-05-25T09:52:03.393Z,95743
2023-05-25T09:55:36.759Z,95745
2023-05-25T09:58:54.796Z,95749
2023-05-25T10:02:20.544Z,95756
2023-05-25T10:05:46.044Z,95751
2023-05-25T10:09:11.551Z,95756
2023-05-25T10:12:37.184Z,95760
2023-05-25T10:16:02.691Z,95755
2023-05-25T10:19:28.062Z,95760
2023-05-25T10:22:53.470Z,95762
2023-05-25T10:26:18.876Z,95767
2023-05-25T10:29:44.181Z,95762
2023-05-25T10:33:09.652Z,95767
2023-05-25T10:36:35.116Z,95762
2023-05-25T10:40:01.114Z,95756
2023-05-25T10:43:26.806Z,95755
2023-05-25T10:46:52.616Z,95751
2023-05-25T10:50:18.450Z,95753
2023-05-25T10:53:44.416Z,95755
2023-05-25T10:57:10.294Z,95755
2023-05-25T11:00:36.141Z,95759
2023-05-25T11:04:01.804Z,95767
2023-05-25T11:07:41.440Z,95750
2023-05-25T11:11:08.963Z,95744
2023-05-25T11:14:34.199Z,95754
2023-05-25T11:17:59.492Z,95754
2023-05-25T11:21:24.705Z,95752
2023-05-25T11:24:49.923Z,95754
2023-05-25T11:28:15.222Z,95750
2023-05-25T11:31:43.222Z,95749
2023-05-25T11:35:05.712Z,95737
2023-05-25T11:38:31.000Z,95739
2023-05-25T11:41:56.272Z,95736
2023-05-25T11:45:21.606Z,95738
2023-05-25T11:48:46.859Z,95734
2023-05-25T11:52:12.165Z,95737
2023-05-25T11:55:37.421Z,95738
2023-05-25T11:59:02.656Z,95730
2023-05-25T12:02:27.983Z,95721
2023-05-25T12:05:53.227Z,95721
2023-05-25T12:09:18.523Z,95717
2023-05-25T12:12:43.764Z,95724
2023-05-25T12:16:09.244Z,95719
2023-05-25T12:19:34.554Z,95723
2023-05-25T12:22:59.843Z,95717
2023-05-25T12:26:25.064Z,95714
2023-05-25T12:29:50.297Z,95717
2023-05-25T12:33:15.709Z,95717
2023-05-25T12:36:40.864Z,95715
2023-05-25T12:40:06.098Z,95718
2023-05-25T12:43:31.369Z,95712
2023-05-25T12:46:56.894Z,95707
2023-05-25T12:50:21.976Z,95704
2023-05-25T12:53:47.280Z,95710
2023-05-25T12:57:12.524Z,95706
2023-05-25T13:00:37.805Z,95706
2023-05-25T13:04:03.031Z,95706
2023-05-25T13:07:28.337Z,95699
2023-05-25T13:10:53.633Z,95697
2023-05-25T13:14:18.832Z,95693
2023-05-25T13:17:44.110Z,95700
2023-05-25T13:21:09.447Z,95692
2023-05-25T13:24:34.696Z,95689
2023-05-25T13:28:00.089Z,95689
2023-05-25T13:31:25.270Z,95689
2023-05-25T13:34:50.518Z,95693
2023-05-25T13:38:17.239Z,95688
2023-05-25T13:41:41.063Z,95690
2023-05-25T13:45:06.328Z,95685
2023-05-25T13:48:32.732Z,95673
2023-05-25T13:51:57.887Z,95679
2023-05-25T13:55:23.179Z,95674
2023-05-25T13:58:48.423Z,95674
2023-05-25T14:02:13.697Z,95678
2023-05-25T14:05:38.877Z,95672
2023-05-25T14:09:04.123Z,95667
2023-05-25T14:12:29.393Z,95674
2023-05-25T14:15:54.666Z,95672
2023-05-25T14:19:19.906Z,95674
2023-05-25T14:22:45.096Z,95672
2023-05-25T14:26:10.388Z,95670
2023-05-25T14:29:35.644Z,95668
2023-05-25T14:33:00.906Z,95672
2023-05-25T14:36:26.199Z,95666
2023-05-25T14:39:51.428Z,95668
2023-05-25T14:43:16.664Z,95666
2023-05-25T14:46:41.918Z,95670
2023-05-25T14:50:07.477Z,95670
2023-05-25T14:53:32.796Z,95666
2023-05-25T14:56:58.016Z,95661
2023-05-25T15:00:23.268Z,95655
2023-05-25T15:03:48.613Z,95653
2023-05-25T15:07:13.776Z,95651
2023-05-25T15:10:39.048Z,95651
2023-05-25T15:47:14.031Z,95644
2023-05-25T15:50:39.225Z,95659
2023-05-25T15:54:04.721Z,95656
2023-05-25T15:57:29.925Z,95655
2023-05-25T16:00:55.160Z,95657
2023-05-25T16:04:20.561Z,95660
2023-05-25T16:07:45.681Z,95663
2023-05-25T16:11:11.213Z,95656
2023-05-25T16:14:45.651Z,95664
2023-05-25T16:18:10.864Z,95661
2023-05-25T16:21:38.767Z,95661
2023-05-25T16:25:04.180Z,95660
2023-05-25T16:28:29.989Z,95665
2023-05-25T16:31:55.240Z,95670
2023-05-25T16:35:20.450Z,95668
2023-05-25T16:38:45.815Z,95665
2023-05-25T16:42:10.938Z,95667
2023-05-25T16:45:36.185Z,95666
2023-05-25T16:49:01.386Z,95661
2023-05-25T16:52:26.707Z,95661
2023-05-25T16:55:51.934Z,95657
2023-05-25T16:59:17.139Z,95653
2023-05-25T17:02:42.510Z,95657
2023-05-25T17:06:07.729Z,95659
2023-05-25T17:09:32.922Z,95655
2023-05-25T17:12:58.168Z,95652
2023-05-25T17:16:23.398Z,95652
2023-05-25T17:19:48.636Z,95656
2023-05-25T17:23:13.839Z,95662
2023-05-25T17:26:39.081Z,95662
2023-05-25T17:30:04.332Z,95661
2023-05-25T17:33:29.518Z,95664
2023-05-25T17:36:54.720Z,95663
2023-05-25T17:40:19.982Z,95661
2023-05-25T17:43:45.227Z,95663
2023-05-25T17:47:11.294Z,95665
2023-05-25T17:50:35.676Z,95660
2023-05-25T17:54:00.900Z,95667
2023-05-25T17:57:26.112Z,95672
2023-05-25T18:00:51.382Z,95674
2023-05-25T18:04:16.753Z,95669
2023-05-25T18:07:41.801Z,95669
2023-05-25T18:11:07.036Z,95666
2023-05-25T18:14:32.261Z,95667
2023-05-25T18:17:57.586Z,95665
2023-05-25T18:21:22.778Z,95670
2023-05-25T18:24:48.024Z,95672
2023-05-25T18:28:13.254Z,95674
2023-05-25T18:31:38.585Z,95672
2023-05-25T18:35:03.880Z,95680
2023-05-25T18:38:29.134Z,95673
2023-05-25T18:41:54.321Z,95681
2023-05-25T18:45:19.590Z,95685
2023-05-25T18:48:44.821Z,95689
2023-05-25T18:52:10.018Z,95692
2023-05-25T18:55:35.274Z,95690
2023-05-25T18:59:00.520Z,95695
2023-05-25T19:02:25.812Z,95694
2023-05-25T19:05:51.061Z,95692
2023-05-25T19:09:16.305Z,95702
2023-05-25T19:12:41.594Z,95700
2023-05-25T19:16:06.867Z,95704
2023-05-25T19:19:32.047Z,95702
2023-05-25T19:22:57.250Z,95708
2023-05-25T19:26:22.502Z,95710
2023-05-25T19:29:47.845Z,95713
2023-05-25T19:33:13.134Z,95714
2023-05-25T19:36:38.377Z,95714
2023-05-25T19:40:03.616Z,95723
2023-05-25T19:43:28.935Z,95719
2023-05-25T19:46:54.156Z,95720
2023-05-25T19:50:19.394Z,95733
2023-05-25T19:53:44.609Z,95732
2023-05-25T19:57:09.850Z,95732
2023-05-25T20:00:35.062Z,95732
2023-05-25T20:04:00.317Z,95738
2023-05-25T20:07:25.494Z,95753
2023-05-25T20:10:50.727Z,95752
2023-05-25T20:14:16.917Z,95755
2023-05-25T20:17:41.259Z,95756
2023-05-25T20:21:06.526Z,95756
2023-05-25T20:24:31.785Z,95757
2023-05-25T20:27:57.011Z,95756
2023-05-25T20:31:22.253Z,95764
2023-05-25T20:34:47.490Z,95764
2023-05-25T20:38:12.760Z,95769
2023-05-25T20:41:38.924Z,95771
2023-05-25T20:45:04.153Z,95773
2023-05-25T20:48:29.436Z,95775
2023-05-25T20:51:54.690Z,95775
2023-05-25T20:55:19.992Z,95773
2023-05-25T20:58:45.209Z,95776
2023-05-25T21:02:10.449Z,95778
2023-05-25T21:05:35.654Z,95780
2023-05-25T21:09:00.911Z,95773
2023-05-25T21:12:26.155Z,95772
2023-05-25T21:15:51.359Z,95777
2023-05-25T21:19:16.640Z,95780
2023-05-25T21:22:41.895Z,95785
2023-05-25T21:26:07.165Z,95778
2023-05-25T21:29:32.453Z,95794
2023-05-25T21:32:57.722Z,95800
2023-05-25T21:36:22.952Z,95797
2023-05-25T21:39:48.189Z,95796
2023-05-25T21:43:13.416Z,95792
2023-05-25T21:46:38.693Z,95796
2023-05-25T21:50:03.918Z,95795
2023-05-25T21:53:29.174Z,95797
2023-05-25T21:56:54.406Z,95804
2023-05-25T22:00:19.641Z,95806
2023-05-25T22:03:44.892Z,95802
2023-05-25T22:07:10.123Z,95811
2023-05-25T22:10:35.339Z,95811
2023-05-25T22:14:00.585Z,95816
2023-05-25T22:17:25.855Z,95814
2023-05-25T22:20:51.118Z,95817
2023-05-25T22:24:16.287Z,95816
2023-05-25T22:27:41.558Z,95819
2023-05-25T22:31:06.823Z,95815
2023-05-25T22:34:32.025Z,95817
2023-05-25T22:37:57.302Z,95815
2023-05-25T22:41:22.533Z,95818
2023-05-25T22:44:47.759Z,95818
2023-05-25T22:48:13.018Z,95818
2023-05-25T22:51:38.216Z,95819
2023-05-25T22:55:03.484Z,95819
2023-05-25T22:58:28.685Z,95820
2023-05-25T23:01:53.899Z,95822
2023-05-25T23:05:19.148Z,95827
2023-05-25T23:08:44.383Z,95826
2023-05-25T23:12:09.754Z,95822
2023-05-25T23:15:34.860Z,95819
2023-05-25T23:19:00.134Z,95821
2023-05-25T23:22:25.370Z,95817
2023-05-25T23:25:50.625Z,95816
2023-05-25T23:29:15.908Z,95813
2023-05-25T23:32:41.241Z,95816
2023-05-25T23:36:06.389Z,95814
2023-05-25T23:39:31.613Z,95813
2023-05-25T23:42:56.867Z,95814
2023-05-25T23:46:22.149Z,95816
2023-05-25T23:49:47.334Z,95807
2023-05-25T23:53:12.550Z,95808
2023-05-25T23:56:37.812Z,95811
